To NAV CANADA Home Page Login to a new session Search on AWWS site Feedback and Comments Disclaimer Vers la page française équivalente Tips FAQ What's new on the site To the Forecasts and Observations / NOTAM section To "File a Flight Plan" website Publications and other links Update of the User's profile FIC Telephone Numbers My Weather Data Folder Route Weather Data Regional Weather Data Local Weather Data To the Forecasts and Observations / NOTAM section
Request Generated 08/22/2017 at 01:35:58 UTC . Weather information available at that time is displayed.

METAR/TAF

MONT-JOLI/QC    

METAR CYYY 220100Z 22007KT 15SM OVC060 23/17 A2981 RMK SC8 LTGNG N
SLP098 DENSITY ALT 1300FT=
METAR CYYY 220000Z 25007KT 15SM FEW110 BKN260 20/15 A2981 RMK AC2CI5
SLP097 DENSITY ALT 1000FT=
METAR CYYY 212300Z 23010KT 15SM SCT110 BKN260 25/17 A2980 RMK AC3CI3
SLP093 DENSITY ALT 1600FT=

TAF CYYY 211938Z 2120/2208 25010KT P6SM SCT050
FM212300 24012G22KT P6SM BKN060 TEMPO 2123/2203 4SM -SHRA BR
FEW020 BKN060 PROB30 2123/2202 VRB15G30KT 2SM TSRA BR BKN020
BKN060CB
FM220300 24010KT P6SM SCT050
RMK NXT FCST BY 220200Z=
Your time UTC time
Weather data provided by Environment Canada and NAV CANADA